This is the latest recevied weather packets stored in our database for station/object KD8UYA. If no packets are shown the sender has not sent any weather packets the latest 10 day(s).
| Time | Temp. | Humidity | Pressure | Rain* | Wind** | Luminosity | Snow |
|---|---|---|---|---|---|---|---|
| 1777942815 | 19.44° C | 61% | 1002.3 hPa | 0 mm | - | - | - |
| 1777940114 | 20° C | 60% | 1001.7 hPa | 0 mm | - | - | - |
| 1777929365 | 22.22° C | 56% | 1002 hPa | 0 mm | - | - | - |
| 1777922145 | 21.11° C | 55% | 1003.4 hPa | 0 mm | - | - | - |
| 1777920340 | 21.11° C | 56% | 1003.9 hPa | 0 mm | - | - | - |
| 1777919436 | 20.56° C | 58% | 1003.9 hPa | 0 mm | - | - | - |
| 1777915828 | 19.44° C | 58% | 1004.6 hPa | 0 mm | - | - | - |
| 1777914938 | 19.44° C | 58% | 1004.6 hPa | 0 mm | - | - | - |
| 1777911315 | 17.78° C | 62% | 1005.1 hPa | 0 mm | - | - | - |
| 1777909518 | 17.22° C | 60% | 1005.5 hPa | 0 mm | - | - | - |
| 1777906865 | 16.11° C | 63% | 1006.1 hPa | 0 mm | - | - | - |
| 1777905068 | 15.56° C | 62% | 1006.1 hPa | 0 mm | - | - | - |
| 1777900542 | 12.78° C | 66% | 1006.7 hPa | 0 mm | - | - | - |
| 1777897825 | 11.67° C | 69% | 1007.1 hPa | 0 mm | - | - | - |
| 1777896924 | 11.11° C | 70% | 1007 hPa | 0 mm | - | - | - |
| 1777896023 | 10.56° C | 71% | 1006.9 hPa | 0 mm | - | - | - |
| 1777895116 | 10.56° C | 71% | 1006.9 hPa | 0 mm | - | - | - |
| 1777894215 | 10° C | 72% | 1006.7 hPa | 0 mm | - | - | - |
| 1777893316 | 10° C | 71% | 1006.7 hPa | 0 mm | - | - | - |
| 1777892414 | 9.44° C | 72% | 1006.6 hPa | 0 mm | - | - | - |
| 1777889713 | 9.44° C | 71% | 1006.6 hPa | 0 mm | - | - | - |
| 1777887005 | 10° C | 69% | 1006.9 hPa | 0 mm | - | - | - |
| 1777886103 | 10° C | 69% | 1007 hPa | 0 mm | - | - | - |
| 1777885202 | 10° C | 69% | 1007.2 hPa | 0 mm | - | - | - |
| 1777884359 | 10° C | 69% | 1007.3 hPa | 0 mm | - | - | - |
* Rain latest hour (hover to see other rain measurements)
** Current wind speed in m/s (hover to see current wind gust speed)